Time;durP1;ratioP1;P1;durP2;ratioP2;P2;SDS_P1;SDS_P2;PMS_P1;PMS_P2;Temp;Humidity;BMP_temperature;BMP_pressure;BME280_temperature;BME280_humidity;BME280_pressure;Samples;Min_cycle;Max_cycle;Signal;HPM_P1;HPM_P2
2023/04/26 00:00:45;;;;;;;4.68;1.30;;;;;;;;;;5133464;27;20019;-76
2023/04/26 00:03:12;;;;;;;8.73;1.58;;;;;;;;;;5134986;27;20499;-78
2023/04/26 00:05:37;;;;;;;3.42;1.20;;;;;;;;;;5134428;27;20058;-74
2023/04/26 00:08:03;;;;;;;10.88;1.73;;;;;;;;;;5134037;27;20441;-75
2023/04/26 00:10:29;;;;;;;9.75;2.17;;;;;;;;;;5134456;27;20023;-71
2023/04/26 00:12:55;;;;;;;9.93;1.75;;;;;;;;;;5134725;27;20145;-74
2023/04/26 00:15:20;;;;;;;8.60;1.90;;;;;;;;;;5134507;27;20385;-74
2023/04/26 00:17:46;;;;;;;5.40;1.67;;;;;;;;;;5134408;27;20397;-77
2023/04/26 00:20:12;;;;;;;5.45;1.40;;;;;;;;;;5134577;27;20457;-76
2023/04/26 00:22:38;;;;;;;5.75;1.30;;;;;;;;;;5134438;27;20548;-77
2023/04/26 00:25:04;;;;;;;9.82;1.83;;;;;;;;;;5134076;27;20023;-76
2023/04/26 00:27:30;;;;;;;7.63;1.67;;;;;;;;;;5134248;27;20031;-67
2023/04/26 00:29:56;;;;;;;13.32;1.60;;;;;;;;;;5134158;27;20027;-68
2023/04/26 00:32:21;;;;;;;9.90;1.50;;;;;;;;;;5132645;27;20374;-76
2023/04/26 00:34:47;;;;;;;5.97;1.20;;;;;;;;;;5134107;27;20399;-73
2023/04/26 00:37:12;;;;;;;5.07;1.60;;;;;;;;;;5127324;22;20046;-71
2023/04/26 00:39:38;;;;;;;8.65;1.98;;;;;;;;;;5113299;28;20019;-72
2023/04/26 00:42:03;;;;;;;3.30;1.48;;;;;;;;;;5113439;28;20028;-73
2023/04/26 00:44:29;;;;;;;3.70;1.33;;;;;;;;;;5113303;28;20019;-77
2023/04/26 00:46:55;;;;;;;5.72;1.65;;;;;;;;;;5113351;28;20016;-74
2023/04/26 00:49:22;;;;;;;8.45;1.60;;;;;;;;;;5094989;28;20036;-67
2023/04/26 00:51:50;;;;;;;6.20;1.38;;;;;;;;;;5113249;28;20500;-67
2023/04/26 00:54:16;;;;;;;6.47;1.50;;;;;;;;;;5113055;28;20049;-75
2023/04/26 00:56:42;;;;;;;4.85;1.20;;;;;;;;;;5113193;28;20382;-71
2023/04/26 00:59:08;;;;;;;5.78;1.23;;;;;;;;;;5094918;28;20012;-70
2023/04/26 01:01:34;;;;;;;10.82;1.90;;;;;;;;;;5113109;28;20032;-74
2023/04/26 01:04:00;;;;;;;6.20;1.50;;;;;;;;;;5112977;28;20180;-71
2023/04/26 01:06:31;;;;;;;5.55;1.73;;;;;;;;;;5112940;28;20485;-72
2023/04/26 01:08:59;;;;;;;11.02;1.40;;;;;;;;;;5112763;28;20118;-74
2023/04/26 01:11:25;;;;;;;6.10;1.50;;;;;;;;;;5112781;28;20051;-71
2023/04/26 01:13:51;;;;;;;5.68;1.30;;;;;;;;;;5112852;28;20108;-72
2023/04/26 01:16:18;;;;;;;8.60;1.90;;;;;;;;;;5112735;28;20020;-72
2023/04/26 01:18:50;;;;;;;7.07;1.27;;;;;;;;;;5112716;28;20027;-74
2023/04/26 01:21:21;;;;;;;5.65;1.00;;;;;;;;;;5112670;28;20051;-72
2023/04/26 01:23:47;;;;;;;8.20;1.42;;;;;;;;;;5112385;28;20028;-73
2023/04/26 01:26:13;;;;;;;6.47;1.70;;;;;;;;;;5094490;28;20032;-69
2023/04/26 01:28:38;;;;;;;5.35;1.50;;;;;;;;;;5112609;28;20027;-74
2023/04/26 01:31:03;;;;;;;6.45;1.63;;;;;;;;;;5112623;28;20421;-67
2023/04/26 01:33:29;;;;;;;4.43;1.52;;;;;;;;;;5112339;28;20019;-78
2023/04/26 01:35:54;;;;;;;5.22;1.48;;;;;;;;;;5112098;28;20047;-77
2023/04/26 01:38:20;;;;;;;8.57;1.77;;;;;;;;;;5112326;28;20447;-77
2023/04/26 01:40:45;;;;;;;7.32;1.35;;;;;;;;;;5112545;28;20028;-75
2023/04/26 01:43:11;;;;;;;4.30;1.25;;;;;;;;;;5112326;28;20098;-76
2023/04/26 01:45:36;;;;;;;4.95;1.45;;;;;;;;;;5112432;28;20050;-76
2023/04/26 01:48:02;;;;;;;5.47;1.58;;;;;;;;;;5112119;28;20151;-77
2023/04/26 01:50:27;;;;;;;6.97;1.40;;;;;;;;;;5112183;28;20020;-76
2023/04/26 01:52:53;;;;;;;4.75;1.20;;;;;;;;;;5111990;28;20482;-76
2023/04/26 01:55:18;;;;;;;4.68;1.50;;;;;;;;;;5112072;28;20023;-75
2023/04/26 01:57:43;;;;;;;5.43;1.05;;;;;;;;;;5112013;28;20535;-73
2023/04/26 02:00:10;;;;;;;5.07;1.35;;;;;;;;;;5112182;28;20114;-76
2023/04/26 02:02:35;;;;;;;2.15;1.02;;;;;;;;;;5112011;28;20028;-75
2023/04/26 02:05:01;;;;;;;7.75;1.73;;;;;;;;;;5112024;28;20125;-77
2023/04/26 02:07:26;;;;;;;4.93;1.58;;;;;;;;;;5111737;28;20023;-76
2023/04/26 02:09:51;;;;;;;6.90;1.75;;;;;;;;;;5111976;28;20016;-76
2023/04/26 02:12:17;;;;;;;9.00;1.90;;;;;;;;;;5111979;28;20039;-76
2023/04/26 02:14:43;;;;;;;6.45;1.63;;;;;;;;;;5111863;28;20028;-69
2023/04/26 02:17:10;;;;;;;6.78;1.30;;;;;;;;;;5112009;28;20047;-76
2023/04/26 02:19:35;;;;;;;5.85;1.52;;;;;;;;;;5111966;28;20076;-75
2023/04/26 02:22:00;;;;;;;5.20;1.35;;;;;;;;;;5111636;28;20102;-77
2023/04/26 02:24:26;;;;;;;10.23;2.30;;;;;;;;;;5111922;28;20015;-74
2023/04/26 02:26:53;;;;;;;8.63;1.77;;;;;;;;;;5112184;28;20397;-77
2023/04/26 02:29:19;;;;;;;8.43;1.67;;;;;;;;;;5112388;28;20024;-72
2023/04/26 02:31:44;;;;;;;7.15;1.08;;;;;;;;;;5116129;28;20580;-76
2023/04/26 02:34:11;;;;;;;6.55;1.55;;;;;;;;;;5116036;28;20068;-76
2023/04/26 02:36:37;;;;;;;7.80;1.20;;;;;;;;;;5115553;28;20050;-77
2023/04/26 02:39:02;;;;;;;5.65;1.40;;;;;;;;;;5116075;28;20115;-76
2023/04/26 02:41:30;;;;;;;4.25;1.48;;;;;;;;;;5116001;28;20019;-77
2023/04/26 02:43:56;;;;;;;6.97;1.60;;;;;;;;;;5115671;28;20023;-76
2023/04/26 02:46:21;;;;;;;11.63;1.98;;;;;;;;;;5115785;28;20015;-75
2023/04/26 02:48:47;;;;;;;4.85;1.50;;;;;;;;;;5115950;28;20027;-75
2023/04/26 02:51:12;;;;;;;6.18;1.45;;;;;;;;;;5115516;28;20051;-76
2023/04/26 02:53:38;;;;;;;10.13;1.92;;;;;;;;;;5115530;28;20068;-74
2023/04/26 02:56:03;;;;;;;7.78;2.03;;;;;;;;;;5115521;28;20028;-75
2023/04/26 02:58:29;;;;;;;7.75;1.80;;;;;;;;;;5115539;28;20027;-75
2023/04/26 03:00:57;;;;;;;13.65;1.63;;;;;;;;;;5097412;28;20015;-74
2023/04/26 03:03:24;;;;;;;3.33;1.48;;;;;;;;;;5115694;28;20020;-74
2023/04/26 03:05:49;;;;;;;6.30;1.65;;;;;;;;;;5115138;28;20047;-74
2023/04/26 03:08:15;;;;;;;8.85;1.50;;;;;;;;;;5115093;28;20070;-75
2023/04/26 03:10:40;;;;;;;7.38;1.52;;;;;;;;;;5115386;28;20287;-74
2023/04/26 03:13:06;;;;;;;8.02;1.40;;;;;;;;;;5115361;28;20047;-71
2023/04/26 03:15:31;;;;;;;9.48;1.75;;;;;;;;;;5115245;28;20020;-72
2023/04/26 03:17:57;;;;;;;7.32;2.03;;;;;;;;;;5114985;28;20488;-75
2023/04/26 03:20:26;;;;;;;6.63;1.65;;;;;;;;;;5114994;28;20024;-72
2023/04/26 03:22:51;;;;;;;4.38;1.65;;;;;;;;;;5115236;28;20028;-70
2023/04/26 03:25:17;;;;;;;10.18;1.85;;;;;;;;;;5114957;28;20026;-73
2023/04/26 03:27:42;;;;;;;8.23;1.45;;;;;;;;;;5114679;28;20024;-75
2023/04/26 03:30:08;;;;;;;6.43;1.38;;;;;;;;;;5114735;28;20058;-72
2023/04/26 03:32:34;;;;;;;13.30;2.13;;;;;;;;;;5114482;28;20490;-71
2023/04/26 03:34:59;;;;;;;6.80;1.90;;;;;;;;;;5114289;28;20385;-73
2023/04/26 03:37:25;;;;;;;4.10;1.33;;;;;;;;;;5114442;28;20409;-73
2023/04/26 03:39:52;;;;;;;7.90;1.73;;;;;;;;;;5114455;28;20032;-72
2023/04/26 03:42:19;;;;;;;7.80;2.03;;;;;;;;;;5113032;28;20047;-70
2023/04/26 03:44:44;;;;;;;5.40;1.60;;;;;;;;;;5114647;28;20538;-67
2023/04/26 03:47:09;;;;;;;6.35;2.05;;;;;;;;;;5096187;28;20118;-66
2023/04/26 03:49:35;;;;;;;6.78;2.13;;;;;;;;;;5114386;28;20098;-73
2023/04/26 03:52:00;;;;;;;7.07;1.90;;;;;;;;;;5114049;28;20055;-69
2023/04/26 03:54:26;;;;;;;10.85;2.08;;;;;;;;;;5114176;28;20024;-66
2023/04/26 03:56:51;;;;;;;5.30;1.85;;;;;;;;;;5114401;28;20024;-74
2023/04/26 03:59:16;;;;;;;7.50;1.70;;;;;;;;;;5114199;28;20038;-74
2023/04/26 04:01:42;;;;;;;6.15;2.10;;;;;;;;;;5113994;28;20466;-71
2023/04/26 04:04:08;;;;;;;8.43;1.70;;;;;;;;;;5113907;28;20106;-75
2023/04/26 04:06:34;;;;;;;8.68;1.95;;;;;;;;;;5114187;28;20057;-71
2023/04/26 04:08:59;;;;;;;7.22;1.60;;;;;;;;;;5114166;28;20111;-69
2023/04/26 04:11:25;;;;;;;6.93;1.98;;;;;;;;;;5113779;28;20385;-72
2023/04/26 04:13:50;;;;;;;7.43;1.50;;;;;;;;;;5113743;28;20031;-74
2023/04/26 04:16:15;;;;;;;6.70;2.00;;;;;;;;;;5113918;28;20020;-70
2023/04/26 04:18:42;;;;;;;7.47;1.70;;;;;;;;;;5113590;28;20450;-70
2023/04/26 04:21:08;;;;;;;11.38;2.72;;;;;;;;;;5113672;28;20034;-73
2023/04/26 04:23:33;;;;;;;7.78;1.77;;;;;;;;;;5113860;28;20456;-74
2023/04/26 04:25:59;;;;;;;10.18;2.38;;;;;;;;;;5113864;28;20386;-76
2023/04/26 04:28:24;;;;;;;6.05;2.38;;;;;;;;;;5113397;28;20119;-74
2023/04/26 04:30:50;;;;;;;7.30;1.80;;;;;;;;;;5113577;28;20051;-76
2023/04/26 04:33:16;;;;;;;9.85;1.70;;;;;;;;;;5113368;28;20031;-75
2023/04/26 04:35:42;;;;;;;8.07;1.70;;;;;;;;;;5113593;28;20065;-76
2023/04/26 04:38:08;;;;;;;6.28;1.98;;;;;;;;;;5113357;28;20059;-77
2023/04/26 04:40:33;;;;;;;7.30;2.00;;;;;;;;;;5113475;28;20028;-69
2023/04/26 04:42:59;;;;;;;7.28;1.92;;;;;;;;;;5113441;28;20027;-74
2023/04/26 04:45:25;;;;;;;7.03;1.63;;;;;;;;;;5113099;28;20054;-75
2023/04/26 04:47:53;;;;;;;7.95;1.80;;;;;;;;;;5113137;28;20038;-75
2023/04/26 04:50:18;;;;;;;6.50;2.10;;;;;;;;;;5094946;28;20092;-76
2023/04/26 04:52:44;;;;;;;5.75;1.52;;;;;;;;;;5113030;28;20435;-72
2023/04/26 04:55:09;;;;;;;9.63;1.63;;;;;;;;;;5113121;28;20466;-75
2023/04/26 04:57:35;;;;;;;8.73;1.73;;;;;;;;;;5113293;28;20024;-73
2023/04/26 05:00:08;;;;;;;5.80;1.70;;;;;;;;;;5112978;28;20089;-77
2023/04/26 05:02:34;;;;;;;3.97;1.50;;;;;;;;;;5113103;28;20032;-72
2023/04/26 05:05:00;;;;;;;7.57;1.40;;;;;;;;;;5113007;28;20023;-68
2023/04/26 05:07:26;;;;;;;7.15;1.90;;;;;;;;;;5112854;28;20039;-76
2023/04/26 05:09:51;;;;;;;4.78;1.80;;;;;;;;;;5112810;28;20034;-76
2023/04/26 05:12:17;;;;;;;7.72;1.83;;;;;;;;;;5112818;28;20390;-74
2023/04/26 05:14:42;;;;;;;7.65;1.67;;;;;;;;;;5112525;28;20081;-73
2023/04/26 05:17:07;;;;;;;5.93;1.67;;;;;;;;;;5112663;28;20023;-76
2023/04/26 05:19:33;;;;;;;8.57;1.63;;;;;;;;;;5112763;28;20023;-74
2023/04/26 05:21:58;;;;;;;7.55;1.85;;;;;;;;;;5094172;28;20035;-67
2023/04/26 05:24:24;;;;;;;10.10;2.00;;;;;;;;;;5112157;28;20401;-68
2023/04/26 05:26:49;;;;;;;19.27;3.40;;;;;;;;;;5112377;28;20031;-74
2023/04/26 05:29:15;;;;;;;13.43;1.67;;;;;;;;;;5112303;28;20073;-70
2023/04/26 05:31:41;;;;;;;3.90;1.52;;;;;;;;;;5112253;28;20588;-74
2023/04/26 05:34:06;;;;;;;8.48;1.83;;;;;;;;;;5112024;28;20028;-76
2023/04/26 05:36:32;;;;;;;7.68;1.90;;;;;;;;;;5111985;28;20054;-71
2023/04/26 05:38:58;;;;;;;7.93;2.15;;;;;;;;;;5112207;28;20092;-78
2023/04/26 05:41:23;;;;;;;4.20;1.50;;;;;;;;;;5112079;28;20441;-75
2023/04/26 05:43:48;;;;;;;3.95;1.38;;;;;;;;;;5111929;28;20020;-74
2023/04/26 05:46:14;;;;;;;8.90;2.15;;;;;;;;;;5112184;28;20034;-66
2023/04/26 05:48:39;;;;;;;11.10;1.70;;;;;;;;;;5111950;28;20027;-74
2023/04/26 05:51:05;;;;;;;8.85;1.63;;;;;;;;;;5111747;28;20478;-76
2023/04/26 05:53:30;;;;;;;6.30;1.40;;;;;;;;;;5107092;28;20080;-77
2023/04/26 05:55:56;;;;;;;6.60;1.67;;;;;;;;;;5118337;28;20023;-71
2023/04/26 05:58:21;;;;;;;8.93;2.10;;;;;;;;;;5117485;28;20069;-72
2023/04/26 06:00:47;;;;;;;9.45;1.98;;;;;;;;;;5115450;28;20016;-79
2023/04/26 06:03:12;;;;;;;5.97;1.13;;;;;;;;;;5114342;28;20034;-79
2023/04/26 06:05:38;;;;;;;4.78;1.25;;;;;;;;;;5112724;28;20022;-76
2023/04/26 06:08:04;;;;;;;8.90;2.13;;;;;;;;;;5112751;28;20428;-68
2023/04/26 06:10:29;;;;;;;8.60;1.95;;;;;;;;;;5117279;28;20034;-75
2023/04/26 06:12:54;;;;;;;9.73;2.00;;;;;;;;;;5115265;28;20016;-81
2023/04/26 06:15:20;;;;;;;7.68;1.65;;;;;;;;;;5116558;28;20036;-83
2023/04/26 06:17:45;;;;;;;10.63;2.08;;;;;;;;;;5117491;28;20055;-71
2023/04/26 06:20:11;;;;;;;7.75;2.20;;;;;;;;;;5111339;28;20381;-73
2023/04/26 06:22:37;;;;;;;9.18;2.10;;;;;;;;;;5111384;28;20105;-72
2023/04/26 06:25:03;;;;;;;5.75;2.47;;;;;;;;;;5111465;28;20486;-71
2023/04/26 06:27:29;;;;;;;15.98;2.47;;;;;;;;;;5110945;28;20387;-72
2023/04/26 06:29:55;;;;;;;9.52;2.15;;;;;;;;;;5111202;28;20030;-75
2023/04/26 06:32:20;;;;;;;12.68;2.72;;;;;;;;;;5111361;28;20022;-77
2023/04/26 06:34:46;;;;;;;6.82;1.73;;;;;;;;;;5111172;28;20119;-74
2023/04/26 06:37:11;;;;;;;11.70;2.95;;;;;;;;;;5110842;28;20499;-74
2023/04/26 06:39:37;;;;;;;11.00;2.40;;;;;;;;;;5111617;28;20028;-76
2023/04/26 06:42:04;;;;;;;8.32;2.20;;;;;;;;;;5110149;28;20024;-75
2023/04/26 06:44:29;;;;;;;6.65;2.03;;;;;;;;;;5111580;28;20110;-73
2023/04/26 06:46:55;;;;;;;7.18;2.17;;;;;;;;;;5111481;28;20114;-75
2023/04/26 06:49:21;;;;;;;8.30;1.95;;;;;;;;;;5111408;28;20084;-77
2023/04/26 06:51:46;;;;;;;5.70;1.90;;;;;;;;;;5110135;28;20026;-72
2023/04/26 06:54:12;;;;;;;9.13;2.25;;;;;;;;;;5109612;28;20028;-76
2023/04/26 06:56:37;;;;;;;7.45;1.90;;;;;;;;;;5110380;28;20034;-75
2023/04/26 06:59:05;;;;;;;6.68;1.65;;;;;;;;;;5110788;28;20035;-73
2023/04/26 07:01:35;;;;;;;5.25;1.55;;;;;;;;;;5111049;28;20084;-75
2023/04/26 07:04:06;;;;;;;11.40;2.50;;;;;;;;;;5111213;28;20028;-76
2023/04/26 07:06:32;;;;;;;6.28;1.58;;;;;;;;;;5111331;28;20100;-73
2023/04/26 07:08:59;;;;;;;6.68;1.88;;;;;;;;;;5111249;28;20051;-71
2023/04/26 07:11:25;;;;;;;7.03;2.08;;;;;;;;;;5111129;28;20428;-76
2023/04/26 07:13:50;;;;;;;6.32;1.60;;;;;;;;;;5111145;28;20019;-74
2023/04/26 07:16:16;;;;;;;5.57;1.65;;;;;;;;;;5113214;28;20099;-76
2023/04/26 07:18:41;;;;;;;4.13;1.75;;;;;;;;;;5114948;28;20038;-77
2023/04/26 07:21:07;;;;;;;10.75;1.85;;;;;;;;;;5114866;28;20020;-76
2023/04/26 07:23:33;;;;;;;3.17;1.30;;;;;;;;;;5114569;28;20440;-75
2023/04/26 07:26:00;;;;;;;5.75;1.80;;;;;;;;;;5114446;28;20059;-75
2023/04/26 07:28:26;;;;;;;5.95;1.50;;;;;;;;;;5114616;28;20476;-76
2023/04/26 07:30:52;;;;;;;3.95;1.48;;;;;;;;;;5114782;28;20030;-76
2023/04/26 07:33:17;;;;;;;11.75;1.60;;;;;;;;;;5114248;28;20019;-75
2023/04/26 07:35:43;;;;;;;9.77;1.88;;;;;;;;;;5114634;28;20023;-77
2023/04/26 07:38:09;;;;;;;5.03;1.30;;;;;;;;;;5114054;28;20047;-77
2023/04/26 07:40:35;;;;;;;7.88;1.58;;;;;;;;;;5114287;28;20031;-75
2023/04/26 07:43:01;;;;;;;8.38;2.28;;;;;;;;;;5108793;27;20064;-74
2023/04/26 07:45:26;;;;;;;8.63;2.20;;;;;;;;;;5115532;28;20154;-72
2023/04/26 07:47:52;;;;;;;6.10;1.48;;;;;;;;;;5115269;28;20023;-77
2023/04/26 07:50:17;;;;;;;8.10;1.98;;;;;;;;;;5115459;28;20072;-75
2023/04/26 07:52:43;;;;;;;8.07;1.40;;;;;;;;;;5115262;28;20026;-72
2023/04/26 07:55:08;;;;;;;8.65;1.63;;;;;;;;;;5115035;28;20028;-73
2023/04/26 07:57:34;;;;;;;10.70;1.70;;;;;;;;;;5115268;28;20038;-66
2023/04/26 08:00:00;;;;;;;6.35;1.80;;;;;;;;;;5115079;28;20023;-73
2023/04/26 08:02:25;;;;;;;4.97;1.23;;;;;;;;;;5096867;28;20439;-74
2023/04/26 08:04:54;;;;;;;7.40;1.50;;;;;;;;;;5115196;28;20022;-76
2023/04/26 08:07:20;;;;;;;6.40;1.80;;;;;;;;;;5114697;28;20035;-76
2023/04/26 08:09:47;;;;;;;6.88;1.60;;;;;;;;;;5115040;28;20032;-76
2023/04/26 08:12:13;;;;;;;6.68;1.70;;;;;;;;;;5115242;28;20077;-77
2023/04/26 08:14:39;;;;;;;10.60;2.00;;;;;;;;;;5115197;28;20647;-68
2023/04/26 08:17:05;;;;;;;5.72;1.50;;;;;;;;;;5115047;28;20072;-76
2023/04/26 08:19:32;;;;;;;5.13;1.95;;;;;;;;;;5096659;28;20028;-71
2023/04/26 08:21:58;;;;;;;9.50;2.00;;;;;;;;;;5114712;28;20030;-75
2023/04/26 08:24:23;;;;;;;8.40;1.67;;;;;;;;;;5114637;28;20031;-74
2023/04/26 08:26:49;;;;;;;7.53;1.95;;;;;;;;;;5114101;28;20127;-74
2023/04/26 08:29:15;;;;;;;6.35;1.40;;;;;;;;;;5114236;28;20023;-75
2023/04/26 08:31:41;;;;;;;5.20;1.58;;;;;;;;;;5114547;28;20466;-70
2023/04/26 08:34:12;;;;;;;21.27;2.25;;;;;;;;;;5114470;28;20039;-76
2023/04/26 08:36:37;;;;;;;8.77;2.17;;;;;;;;;;5114608;28;20052;-73
2023/04/26 08:39:03;;;;;;;7.18;1.65;;;;;;;;;;5114225;28;20055;-73
2023/04/26 08:41:33;;;;;;;6.88;2.00;;;;;;;;;;5114548;28;20042;-77
2023/04/26 08:44:00;;;;;;;6.28;1.40;;;;;;;;;;5114347;28;20049;-77
2023/04/26 08:46:26;;;;;;;6.70;1.80;;;;;;;;;;5114267;28;20038;-78
2023/04/26 08:49:08;;;;;;;6.60;1.85;;;;;;;;;;5114110;28;20054;-76
2023/04/26 08:51:36;;;;;;;6.55;1.88;;;;;;;;;;5114563;28;20042;-77
2023/04/26 08:54:03;;;;;;;4.18;1.83;;;;;;;;;;5113981;28;20024;-70
2023/04/26 08:56:30;;;;;;;5.82;1.73;;;;;;;;;;5114217;28;20081;-70
2023/04/26 08:58:55;;;;;;;9.27;2.33;;;;;;;;;;5114134;28;20065;-75
2023/04/26 09:01:24;;;;;;;8.10;2.10;;;;;;;;;;5114017;28;20436;-75
2023/04/26 09:03:50;;;;;;;4.15;1.33;;;;;;;;;;5113978;28;20031;-77
2023/04/26 09:06:16;;;;;;;12.40;2.08;;;;;;;;;;5113973;28;20150;-76
2023/04/26 09:08:43;;;;;;;10.05;1.73;;;;;;;;;;5113859;28;20087;-73
2023/04/26 09:11:08;;;;;;;7.25;2.10;;;;;;;;;;5113896;28;20062;-75
2023/04/26 09:13:34;;;;;;;5.63;1.40;;;;;;;;;;5113937;28;20058;-73
2023/04/26 09:16:00;;;;;;;9.88;1.52;;;;;;;;;;5113878;28;20070;-76
2023/04/26 09:18:25;;;;;;;4.43;1.40;;;;;;;;;;5113586;28;20111;-76
2023/04/26 09:21:01;;;;;;;5.25;1.35;;;;;;;;;;5113323;28;20057;-75
2023/04/26 09:23:26;;;;;;;5.25;1.60;;;;;;;;;;5113456;28;20025;-74
2023/04/26 09:25:52;;;;;;;5.72;1.52;;;;;;;;;;5113626;28;20020;-75
2023/04/26 09:28:20;;;;;;;8.00;1.90;;;;;;;;;;5113495;28;20032;-74
2023/04/26 09:30:45;;;;;;;7.22;2.00;;;;;;;;;;5113452;28;20501;-74
2023/04/26 09:33:11;;;;;;;3.88;1.63;;;;;;;;;;5108772;28;20039;-75
2023/04/26 09:35:41;;;;;;;5.22;1.70;;;;;;;;;;5112314;28;20019;-77
2023/04/26 09:38:11;;;;;;;3.90;1.33;;;;;;;;;;5113178;28;20134;-75
2023/04/26 09:40:47;;;;;;;18.60;1.70;;;;;;;;;;5112641;28;20023;-74
2023/04/26 09:43:14;;;;;;;4.65;1.50;;;;;;;;;;5113311;28;20129;-74
2023/04/26 09:45:50;;;;;;;5.22;1.52;;;;;;;;;;5113319;28;20023;-73
2023/04/26 09:48:20;;;;;;;6.95;1.50;;;;;;;;;;5113053;28;20024;-74
2023/04/26 09:50:45;;;;;;;8.50;3.47;;;;;;;;;;5111963;28;20439;-69
2023/04/26 09:53:27;;;;;;;6.60;1.52;;;;;;;;;;5113080;28;20112;-71
2023/04/26 09:56:06;;;;;;;2.97;1.25;;;;;;;;;;5113173;28;20106;-74
2023/04/26 09:58:31;;;;;;;3.00;1.30;;;;;;;;;;5113422;28;20031;-77
2023/04/26 10:00:58;;;;;;;3.13;1.10;;;;;;;;;;5113083;28;20046;-73
2023/04/26 10:03:23;;;;;;;3.33;1.20;;;;;;;;;;5113071;28;20462;-75
2023/04/26 10:05:49;;;;;;;9.20;1.48;;;;;;;;;;5112792;28;20102;-74
2023/04/26 10:08:15;;;;;;;5.20;1.30;;;;;;;;;;5112893;28;20055;-79
2023/04/26 10:10:41;;;;;;;7.00;1.85;;;;;;;;;;5110351;28;20058;-76
2023/04/26 10:13:07;;;;;;;4.85;1.60;;;;;;;;;;5092770;28;20412;-76
2023/04/26 10:15:34;;;;;;;5.75;1.95;;;;;;;;;;5092669;28;20107;-76
2023/04/26 10:17:59;;;;;;;8.02;3.13;;;;;;;;;;5092417;28;20508;-76
2023/04/26 10:20:27;;;;;;;5.43;1.90;;;;;;;;;;5092262;28;20020;-72
2023/04/26 10:23:00;;;;;;;6.93;2.15;;;;;;;;;;5097166;28;20099;-75
2023/04/26 10:25:36;;;;;;;9.57;1.73;;;;;;;;;;5112630;28;20024;-78
2023/04/26 10:28:02;;;;;;;7.00;1.80;;;;;;;;;;5112174;28;20385;-75
2023/04/26 10:30:27;;;;;;;3.83;1.35;;;;;;;;;;5112452;28;20521;-74
2023/04/26 10:32:56;;;;;;;10.45;1.50;;;;;;;;;;5112326;28;20073;-75
2023/04/26 10:35:26;;;;;;;3.03;1.30;;;;;;;;;;5092951;28;20497;-75
2023/04/26 10:38:00;;;;;;;5.43;1.92;;;;;;;;;;5112484;28;20044;-74
2023/04/26 10:40:39;;;;;;;9.23;1.92;;;;;;;;;;5112375;28;20036;-73
2023/04/26 10:43:12;;;;;;;3.40;1.30;;;;;;;;;;5094101;28;20054;-72
2023/04/26 10:45:38;;;;;;;7.65;1.70;;;;;;;;;;5112529;28;20428;-77
2023/04/26 10:48:10;;;;;;;8.18;1.52;;;;;;;;;;5112302;28;20449;-68
2023/04/26 10:51:01;;;;;;;7.22;1.63;;;;;;;;;;5113463;28;20031;-72
2023/04/26 10:53:31;;;;;;;3.63;1.33;;;;;;;;;;5116399;28;20031;-75
2023/04/26 10:55:57;;;;;;;6.60;1.50;;;;;;;;;;5116375;28;20024;-77
2023/04/26 10:58:34;;;;;;;7.05;1.60;;;;;;;;;;5098066;28;20366;-69
2023/04/26 11:01:03;;;;;;;4.57;1.30;;;;;;;;;;5116175;28;20080;-74
2023/04/26 11:03:30;;;;;;;4.55;1.55;;;;;;;;;;5116108;28;20028;-76
2023/04/26 11:05:56;;;;;;;7.15;1.52;;;;;;;;;;5116210;28;20393;-76
2023/04/26 11:08:29;;;;;;;6.28;1.95;;;;;;;;;;5116119;28;20023;-71
2023/04/26 11:11:03;;;;;;;3.47;1.45;;;;;;;;;;5116162;28;20035;-76
2023/04/26 11:13:34;;;;;;;3.92;1.20;;;;;;;;;;5116215;28;20051;-74
2023/04/26 11:16:05;;;;;;;7.85;2.00;;;;;;;;;;5116222;28;20019;-76
2023/04/26 11:18:32;;;;;;;6.82;1.48;;;;;;;;;;5115644;28;20058;-76
2023/04/26 11:20:57;;;;;;;6.57;1.50;;;;;;;;;;5097583;28;20027;-74
2023/04/26 11:23:25;;;;;;;5.28;1.70;;;;;;;;;;5097602;28;20019;-74
2023/04/26 11:25:50;;;;;;;6.03;1.90;;;;;;;;;;5115888;28;20070;-72
2023/04/26 11:28:17;;;;;;;5.25;2.13;;;;;;;;;;5115780;28;20063;-70
2023/04/26 11:30:43;;;;;;;5.25;1.70;;;;;;;;;;5115630;28;20058;-67
2023/04/26 11:33:19;;;;;;;5.68;1.55;;;;;;;;;;5115363;28;20427;-76
2023/04/26 11:35:51;;;;;;;5.57;1.77;;;;;;;;;;5115644;28;20069;-71
2023/04/26 11:38:20;;;;;;;5.38;2.63;;;;;;;;;;5095371;28;20371;-68
2023/04/26 11:40:52;;;;;;;6.70;2.10;;;;;;;;;;5095115;28;20028;-72
2023/04/26 11:43:19;;;;;;;3.70;1.65;;;;;;;;;;5095169;28;20483;-64
2023/04/26 11:45:45;;;;;;;5.40;2.00;;;;;;;;;;5095236;28;20035;-77
2023/04/26 11:48:11;;;;;;;5.40;1.58;;;;;;;;;;5095022;28;20039;-77
2023/04/26 11:50:38;;;;;;;2.88;1.50;;;;;;;;;;5095147;28;20547;-76
2023/04/26 11:53:05;;;;;;;4.53;1.63;;;;;;;;;;5094726;28;20036;-75
2023/04/26 11:55:33;;;;;;;9.90;3.03;;;;;;;;;;5095227;28;20417;-74
2023/04/26 11:58:09;;;;;;;4.80;1.55;;;;;;;;;;5094999;28;20024;-77
2023/04/26 12:00:35;;;;;;;4.85;1.50;;;;;;;;;;5094886;28;20475;-75
2023/04/26 12:03:10;;;;;;;5.00;1.38;;;;;;;;;;5093665;28;20042;-77
2023/04/26 12:05:36;;;;;;;2.65;0.95;;;;;;;;;;5094608;28;20042;-72
2023/04/26 12:08:02;;;;;;;3.80;1.48;;;;;;;;;;5094554;28;20112;-76
2023/04/26 12:10:34;;;;;;;6.55;1.60;;;;;;;;;;5094628;28;20048;-77
2023/04/26 12:12:59;;;;;;;5.20;1.42;;;;;;;;;;5094805;28;20028;-71
2023/04/26 12:15:29;;;;;;;2.30;1.10;;;;;;;;;;5094463;28;20081;-77
2023/04/26 12:18:07;;;;;;;6.00;1.42;;;;;;;;;;5094541;28;20028;-71
2023/04/26 12:20:35;;;;;;;6.85;1.42;;;;;;;;;;5094466;28;20075;-73
2023/04/26 12:23:06;;;;;;;6.53;1.65;;;;;;;;;;5094338;28;20514;-74
2023/04/26 12:25:40;;;;;;;5.10;1.70;;;;;;;;;;5094183;28;20046;-76
2023/04/26 12:28:10;;;;;;;5.20;1.60;;;;;;;;;;5094336;28;20036;-75
2023/04/26 12:30:37;;;;;;;4.03;1.67;;;;;;;;;;5093906;28;20474;-71
2023/04/26 12:33:03;;;;;;;5.72;1.70;;;;;;;;;;5108582;28;20024;-76
2023/04/26 12:35:29;;;;;;;5.38;2.17;;;;;;;;;;5114456;28;20035;-74
2023/04/26 12:37:55;;;;;;;6.53;1.70;;;;;;;;;;5114455;28;20386;-75
2023/04/26 12:40:22;;;;;;;2.95;1.58;;;;;;;;;;5114456;28;20023;-76
2023/04/26 12:42:49;;;;;;;2.72;1.30;;;;;;;;;;5114428;28;20107;-69
2023/04/26 12:45:17;;;;;;;6.82;1.58;;;;;;;;;;5114424;28;20066;-76
2023/04/26 12:47:43;;;;;;;6.75;1.88;;;;;;;;;;5114266;28;20122;-76
2023/04/26 12:50:10;;;;;;;5.45;1.30;;;;;;;;;;5113758;28;20164;-77
2023/04/26 12:52:36;;;;;;;4.13;1.50;;;;;;;;;;5113461;28;20027;-76
2023/04/26 12:55:03;;;;;;;6.72;1.50;;;;;;;;;;5113827;28;20397;-77
2023/04/26 12:57:29;;;;;;;6.55;1.73;;;;;;;;;;5114122;28;20035;-75
2023/04/26 12:59:55;;;;;;;6.50;2.00;;;;;;;;;;5113944;28;20031;-76
2023/04/26 13:02:21;;;;;;;7.70;1.92;;;;;;;;;;5114040;28;20472;-76
2023/04/26 13:04:47;;;;;;;9.00;2.53;;;;;;;;;;5113999;28;20088;-76
2023/04/26 13:07:12;;;;;;;3.70;2.00;;;;;;;;;;5113814;28;20031;-76
2023/04/26 13:09:38;;;;;;;4.28;1.50;;;;;;;;;;5113987;28;20027;-75
2023/04/26 13:12:03;;;;;;;7.43;1.77;;;;;;;;;;5113835;28;20016;-75
2023/04/26 13:14:29;;;;;;;4.82;1.63;;;;;;;;;;5113382;28;20066;-76
2023/04/26 13:16:55;;;;;;;4.40;1.52;;;;;;;;;;5113605;28;20020;-75
2023/04/26 13:19:20;;;;;;;4.13;1.60;;;;;;;;;;5113735;28;20032;-72
2023/04/26 13:21:46;;;;;;;3.92;1.60;;;;;;;;;;5113757;28;20069;-72
2023/04/26 13:24:11;;;;;;;4.90;1.58;;;;;;;;;;5113690;28;20030;-74
2023/04/26 13:26:39;;;;;;;11.10;2.03;;;;;;;;;;5113620;28;20491;-67
2023/04/26 13:29:05;;;;;;;4.53;1.83;;;;;;;;;;5113084;28;20027;-76
2023/04/26 13:31:30;;;;;;;6.18;1.60;;;;;;;;;;5113722;28;20027;-78
2023/04/26 13:33:56;;;;;;;6.63;2.30;;;;;;;;;;5112692;28;20038;-72
2023/04/26 13:36:21;;;;;;;6.05;2.10;;;;;;;;;;5113046;28;20570;-74
2023/04/26 13:38:47;;;;;;;4.20;1.80;;;;;;;;;;5113463;28;20035;-77
2023/04/26 13:41:13;;;;;;;4.35;1.52;;;;;;;;;;5113471;28;20084;-78
2023/04/26 13:43:38;;;;;;;5.75;2.03;;;;;;;;;;5113208;28;20438;-75
2023/04/26 13:46:04;;;;;;;4.50;1.67;;;;;;;;;;5113216;28;20102;-76
2023/04/26 13:48:29;;;;;;;7.70;1.90;;;;;;;;;;5113054;28;20027;-76
2023/04/26 13:50:55;;;;;;;6.38;2.15;;;;;;;;;;5113491;28;20051;-77
2023/04/26 13:53:21;;;;;;;7.50;1.83;;;;;;;;;;5113216;28;20462;-74
2023/04/26 13:55:47;;;;;;;7.70;2.38;;;;;;;;;;5113255;28;20050;-68
2023/04/26 13:58:12;;;;;;;3.80;1.77;;;;;;;;;;5112836;28;20020;-67
2023/04/26 14:00:38;;;;;;;6.43;1.90;;;;;;;;;;5113214;28;20127;-76
2023/04/26 14:03:03;;;;;;;3.30;1.60;;;;;;;;;;5112954;28;20035;-77
2023/04/26 14:05:29;;;;;;;4.57;1.70;;;;;;;;;;5112939;28;20110;-66
2023/04/26 14:07:55;;;;;;;3.35;1.50;;;;;;;;;;5113089;28;20539;-77
2023/04/26 14:10:20;;;;;;;3.72;1.80;;;;;;;;;;5113110;28;20063;-76
2023/04/26 14:12:46;;;;;;;7.15;2.30;;;;;;;;;;5112799;28;20023;-72
2023/04/26 14:15:11;;;;;;;4.18;2.03;;;;;;;;;;5112970;28;20031;-74
2023/04/26 14:17:37;;;;;;;5.00;2.10;;;;;;;;;;5112901;28;20485;-77
2023/04/26 14:20:04;;;;;;;6.97;2.38;;;;;;;;;;5113001;28;20119;-76
2023/04/26 14:22:29;;;;;;;5.47;2.20;;;;;;;;;;5112778;28;20470;-64
2023/04/26 14:24:55;;;;;;;5.05;2.15;;;;;;;;;;5113852;28;20028;-75
2023/04/26 14:27:20;;;;;;;3.83;1.80;;;;;;;;;;5119252;28;20030;-69
2023/04/26 14:29:46;;;;;;;7.80;2.22;;;;;;;;;;5118096;28;20031;-70
2023/04/26 14:32:12;;;;;;;4.50;1.92;;;;;;;;;;5119600;28;20145;-71
2023/04/26 14:34:40;;;;;;;7.18;2.45;;;;;;;;;;5118227;27;20028;-75
2023/04/26 14:37:06;;;;;;;6.20;2.35;;;;;;;;;;5118875;28;20509;-73